createdAt,value
2022-12-18T00:00:09.739Z,9.10
2022-12-18T00:02:37.932Z,9.10
2022-12-18T00:05:07.083Z,9.00
2022-12-18T00:07:37.426Z,9.10
2022-12-18T00:10:06.961Z,9.10
2022-12-18T00:12:35.373Z,9.10
2022-12-18T00:15:03.731Z,9.00
2022-12-18T00:17:31.915Z,9.00
2022-12-18T00:20:00.210Z,9.00
2022-12-18T00:22:28.459Z,9.30
2022-12-18T00:24:58.162Z,9.30
2022-12-18T00:27:26.373Z,9.10
2022-12-18T00:29:54.779Z,9.00
2022-12-18T00:32:22.998Z,9.00
2022-12-18T00:34:51.265Z,9.20
2022-12-18T00:37:20.458Z,9.10
2022-12-18T00:39:51.453Z,9.20
2022-12-18T00:42:38.460Z,9.20
2022-12-18T00:45:12.313Z,9.20
2022-12-18T00:47:41.954Z,9.20
2022-12-18T00:50:11.584Z,9.20
2022-12-18T00:52:43.740Z,9.10
2022-12-18T00:55:12.766Z,9.00
2022-12-18T00:57:42.780Z,9.10
2022-12-18T01:00:16.386Z,9.10
2022-12-18T01:02:45.424Z,9.30
2022-12-18T01:05:15.301Z,9.30
2022-12-18T01:07:44.015Z,9.30
2022-12-18T01:10:14.229Z,9.40
2022-12-18T01:12:44.332Z,9.50
2022-12-18T01:15:14.410Z,9.70
2022-12-18T01:17:42.660Z,9.70
2022-12-18T01:20:13.205Z,9.60
2022-12-18T01:22:41.948Z,9.60
2022-12-18T01:25:10.869Z,9.70
2022-12-18T01:27:39.193Z,9.80
2022-12-18T01:30:10.181Z,9.80
2022-12-18T01:32:38.553Z,9.90
2022-12-18T01:35:08.077Z,9.90
2022-12-18T01:37:36.313Z,9.90
2022-12-18T01:40:04.931Z,9.70
2022-12-18T01:42:33.242Z,9.70
2022-12-18T01:45:23.503Z,9.70
2022-12-18T01:47:54.333Z,9.70
2022-12-18T01:50:25.553Z,9.80
2022-12-18T01:52:56.989Z,9.80
2022-12-18T01:55:29.677Z,9.90
2022-12-18T01:58:00.751Z,9.80
2022-12-18T02:00:31.397Z,9.70
2022-12-18T02:02:59.761Z,9.60
2022-12-18T02:05:39.251Z,9.50
2022-12-18T02:08:12.980Z,9.40
2022-12-18T02:10:49.903Z,9.60
2022-12-18T02:13:26.370Z,9.50
2022-12-18T02:16:05.962Z,9.60
2022-12-18T02:18:38.351Z,9.40
2022-12-18T02:21:13.785Z,9.50
2022-12-18T02:23:51.200Z,9.40
2022-12-18T02:26:24.294Z,9.30
2022-12-18T02:28:57.297Z,9.20
2022-12-18T02:31:29.243Z,9.40
2022-12-18T02:34:02.042Z,9.40
2022-12-18T02:36:31.747Z,9.30
2022-12-18T02:39:01.901Z,9.30
2022-12-18T02:41:32.476Z,9.30
2022-12-18T02:44:08.853Z,9.30
2022-12-18T02:46:44.685Z,9.30
2022-12-18T02:49:25.319Z,9.30
2022-12-18T02:51:57.854Z,9.30
2022-12-18T02:54:38.213Z,9.20
2022-12-18T02:57:20.621Z,9.20
2022-12-18T03:00:01.045Z,9.20
2022-12-18T03:02:36.426Z,9.20
2022-12-18T03:05:14.020Z,9.30
2022-12-18T03:07:48.325Z,9.20
2022-12-18T03:10:21.953Z,9.20
2022-12-18T03:12:55.768Z,9.30
2022-12-18T03:15:30.617Z,9.30
2022-12-18T03:18:05.085Z,9.20
2022-12-18T03:20:36.367Z,9.30
2022-12-18T03:23:10.371Z,9.30
2022-12-18T03:25:43.443Z,9.30
2022-12-18T03:28:15.941Z,9.30
2022-12-18T03:30:46.637Z,9.20
2022-12-18T03:33:20.738Z,9.20
2022-12-18T03:35:49.287Z,9.10
2022-12-18T03:38:17.773Z,9.10
2022-12-18T03:40:55.249Z,9.10
2022-12-18T03:43:37.382Z,9.10
2022-12-18T03:46:10.170Z,9.00
2022-12-18T03:48:44.449Z,9.00
2022-12-18T03:51:17.278Z,9.10
2022-12-18T03:53:52.535Z,9.10
2022-12-18T03:56:23.350Z,9.20
2022-12-18T03:58:54.627Z,9.00
2022-12-18T04:01:27.961Z,9.00
2022-12-18T04:03:57.231Z,8.90
2022-12-18T04:06:25.774Z,8.90
2022-12-18T04:08:54.633Z,9.00
2022-12-18T04:11:23.394Z,9.00
2022-12-18T04:13:57.342Z,9.00
2022-12-18T04:16:25.696Z,8.90
2022-12-18T04:18:54.259Z,9.00
2022-12-18T04:21:23.714Z,8.90
2022-12-18T04:23:52.171Z,8.90
2022-12-18T04:26:20.550Z,9.00
2022-12-18T04:28:48.931Z,8.90
2022-12-18T04:31:18.610Z,8.90
2022-12-18T04:33:46.901Z,8.90
2022-12-18T04:36:15.120Z,8.90
2022-12-18T04:38:43.447Z,8.90
2022-12-18T04:41:12.099Z,9.00
2022-12-18T04:43:40.734Z,8.80
2022-12-18T04:46:10.616Z,8.80
2022-12-18T04:48:40.457Z,8.70
2022-12-18T04:51:09.364Z,8.70
2022-12-18T04:53:37.955Z,8.70
2022-12-18T04:56:08.772Z,8.80
2022-12-18T04:58:37.249Z,8.70
2022-12-18T05:01:05.752Z,8.80
2022-12-18T05:03:34.109Z,8.80
2022-12-18T05:06:04.019Z,8.90
2022-12-18T05:08:32.861Z,8.90
2022-12-18T05:11:02.172Z,8.90
2022-12-18T05:13:30.793Z,8.90
2022-12-18T05:15:59.334Z,9.00
2022-12-18T05:18:28.438Z,8.90
2022-12-18T05:20:57.304Z,8.90
2022-12-18T05:23:27.414Z,9.00
2022-12-18T05:25:57.368Z,9.00
2022-12-18T05:28:27.078Z,9.20
2022-12-18T05:30:57.324Z,9.20
2022-12-18T05:33:27.803Z,9.20
2022-12-18T05:35:57.311Z,9.10
2022-12-18T05:38:28.764Z,9.00
2022-12-18T05:40:57.690Z,9.00
2022-12-18T05:43:29.117Z,9.00
2022-12-18T05:45:58.485Z,8.90
2022-12-18T05:48:26.577Z,8.90
2022-12-18T05:50:54.889Z,8.90
2022-12-18T05:53:23.157Z,9.00
2022-12-18T05:55:52.903Z,8.90
2022-12-18T05:58:21.221Z,8.90
2022-12-18T06:00:49.499Z,8.80
2022-12-18T06:03:17.821Z,8.90
2022-12-18T06:05:47.247Z,8.80
2022-12-18T06:08:15.833Z,8.80
2022-12-18T06:10:44.623Z,8.70
2022-12-18T06:13:14.332Z,8.70
2022-12-18T06:15:42.572Z,8.70
2022-12-18T06:18:10.827Z,8.70
2022-12-18T06:20:40.728Z,8.70
2022-12-18T06:23:09.140Z,8.70
2022-12-18T06:25:40.424Z,8.60
2022-12-18T06:28:08.787Z,8.80
2022-12-18T06:30:38.491Z,8.90
2022-12-18T06:33:07.726Z,8.90
2022-12-18T06:35:36.077Z,8.90
2022-12-18T06:38:04.649Z,8.80
2022-12-18T06:40:33.240Z,8.80
2022-12-18T06:43:01.523Z,8.70
2022-12-18T06:45:30.245Z,8.70
2022-12-18T06:48:00.066Z,8.70
2022-12-18T06:50:28.581Z,8.50
2022-12-18T06:52:56.907Z,8.50
2022-12-18T06:55:25.218Z,8.50
2022-12-18T06:57:53.737Z,8.70
2022-12-18T07:00:22.064Z,8.60
2022-12-18T07:02:50.427Z,8.70
2022-12-18T07:05:20.266Z,8.70
2022-12-18T07:07:48.557Z,8.60
2022-12-18T07:10:16.976Z,8.70
2022-12-18T07:12:45.269Z,8.70
2022-12-18T07:15:13.538Z,8.60
2022-12-18T07:17:41.897Z,8.60
2022-12-18T07:20:15.249Z,8.70
2022-12-18T07:22:45.153Z,8.80
2022-12-18T07:25:13.458Z,8.80
2022-12-18T07:27:41.705Z,8.80
2022-12-18T07:30:12.065Z,8.80
2022-12-18T07:32:40.400Z,8.90
2022-12-18T07:35:08.954Z,8.70
2022-12-18T07:37:37.255Z,8.70
2022-12-18T07:40:08.270Z,8.80
2022-12-18T07:42:37.851Z,8.90
2022-12-18T07:45:07.193Z,8.90
2022-12-18T07:47:36.570Z,9.00
2022-12-18T07:50:05.789Z,8.80
2022-12-18T07:52:34.130Z,8.90
2022-12-18T07:55:02.674Z,8.90
2022-12-18T07:57:50.090Z,8.90
2022-12-18T08:00:20.474Z,8.90
2022-12-18T08:02:49.920Z,8.90
2022-12-18T08:05:18.448Z,9.00
2022-12-18T08:07:46.748Z,9.10
2022-12-18T08:10:15.306Z,9.10
2022-12-18T08:12:44.909Z,9.20
2022-12-18T08:15:13.388Z,9.30
2022-12-18T08:17:41.601Z,9.50
2022-12-18T08:20:11.150Z,10.00
2022-12-18T08:22:40.063Z,11.90
2022-12-18T08:25:09.271Z,12.70
2022-12-18T08:27:37.352Z,13.20
2022-12-18T08:30:08.917Z,13.60
2022-12-18T08:32:37.462Z,13.70
2022-12-18T08:35:06.598Z,13.90
2022-12-18T08:37:34.863Z,14.50
2022-12-18T08:40:03.343Z,15.70
2022-12-18T08:42:49.159Z,15.00
2022-12-18T08:45:19.086Z,14.80
2022-12-18T08:47:47.391Z,13.30
2022-12-18T08:50:19.233Z,12.30
2022-12-18T08:52:47.639Z,12.40
2022-12-18T08:55:16.569Z,12.00
2022-12-18T08:57:44.817Z,12.20
2022-12-18T09:00:15.189Z,12.40
2022-12-18T09:02:45.455Z,12.10
2022-12-18T09:05:13.872Z,11.70
2022-12-18T09:07:42.133Z,11.50
2022-12-18T09:10:10.620Z,11.40
2022-12-18T09:12:38.865Z,11.10
2022-12-18T09:15:08.219Z,11.00
2022-12-18T09:17:36.498Z,11.10
2022-12-18T09:20:07.162Z,11.20
2022-12-18T09:22:35.460Z,11.20
2022-12-18T09:25:03.675Z,11.10
2022-12-18T09:27:31.938Z,11.10
2022-12-18T09:30:00.378Z,11.20
2022-12-18T09:32:28.819Z,11.30
2022-12-18T09:34:57.085Z,11.30
2022-12-18T09:37:26.882Z,11.30
2022-12-18T09:39:55.138Z,11.50
2022-12-18T09:42:24.405Z,11.70
2022-12-18T09:44:55.252Z,11.80
2022-12-18T09:47:28.099Z,12.00
2022-12-18T09:50:01.806Z,12.30
2022-12-18T09:52:36.325Z,12.40
2022-12-18T09:55:12.841Z,12.60
2022-12-18T09:57:47.415Z,12.70
2022-12-18T10:00:21.477Z,12.80
2022-12-18T10:02:51.865Z,12.90
2022-12-18T10:05:31.280Z,13.10
2022-12-18T10:08:07.846Z,13.30
2022-12-18T10:10:42.135Z,13.30
2022-12-18T10:13:20.756Z,13.30
2022-12-18T10:16:03.806Z,13.40
2022-12-18T10:18:51.161Z,13.50
2022-12-18T10:21:22.492Z,13.60
2022-12-18T10:24:00.535Z,13.80
2022-12-18T10:26:28.913Z,13.80
2022-12-18T10:29:03.803Z,13.90
2022-12-18T10:31:34.022Z,14.10
2022-12-18T10:34:02.730Z,14.30
2022-12-18T10:36:31.591Z,14.20
2022-12-18T10:39:17.314Z,14.20
2022-12-18T10:41:46.190Z,14.10
2022-12-18T10:44:19.792Z,14.10
2022-12-18T10:46:50.107Z,14.20
2022-12-18T10:49:24.633Z,14.30
2022-12-18T10:52:05.917Z,14.50
2022-12-18T10:54:37.154Z,14.40
2022-12-18T10:57:19.305Z,14.40
2022-12-18T10:59:55.776Z,14.30
2022-12-18T11:02:35.731Z,14.40
2022-12-18T11:05:06.377Z,14.30
2022-12-18T11:07:51.204Z,14.30
2022-12-18T11:10:22.874Z,14.20
2022-12-18T11:12:51.672Z,14.40
2022-12-18T11:15:23.192Z,14.50
2022-12-18T11:17:53.111Z,14.50
2022-12-18T11:20:32.223Z,14.30
2022-12-18T11:23:02.794Z,14.30
2022-12-18T11:25:36.196Z,14.20
2022-12-18T11:28:07.264Z,14.10
2022-12-18T11:30:37.524Z,14.10
2022-12-18T11:33:08.699Z,14.10
2022-12-18T11:35:46.771Z,14.00
2022-12-18T11:38:26.330Z,13.90
2022-12-18T11:41:00.347Z,13.90
2022-12-18T11:43:32.841Z,13.90
2022-12-18T11:46:05.897Z,14.10
2022-12-18T11:48:40.026Z,14.10
2022-12-18T11:51:16.787Z,14.10
2022-12-18T11:53:45.061Z,14.20
2022-12-18T11:56:29.864Z,14.30
2022-12-18T11:59:07.337Z,14.30
2022-12-18T12:01:48.414Z,14.20
2022-12-18T12:04:58.567Z,14.20
2022-12-18T12:07:39.425Z,14.10
2022-12-18T12:10:20.813Z,14.00
2022-12-18T12:13:02.363Z,14.10
2022-12-18T12:15:36.844Z,14.00
2022-12-18T12:18:16.937Z,14.10
2022-12-18T12:20:52.479Z,14.10
2022-12-18T12:23:30.698Z,14.00
2022-12-18T12:26:05.116Z,14.00
2022-12-18T12:28:58.154Z,14.00
2022-12-18T12:31:40.361Z,14.00
2022-12-18T12:34:18.637Z,14.10
2022-12-18T12:37:04.219Z,14.10
2022-12-18T12:39:36.582Z,14.10
2022-12-18T12:42:25.413Z,14.00
2022-12-18T12:44:59.175Z,14.10
2022-12-18T12:47:31.980Z,14.00
2022-12-18T12:50:04.558Z,14.00
2022-12-18T12:52:42.073Z,14.00
2022-12-18T12:55:18.183Z,14.10
2022-12-18T12:57:57.214Z,14.10
2022-12-18T13:00:29.217Z,14.10
2022-12-18T13:03:05.656Z,14.00
2022-12-18T13:05:41.762Z,14.00
2022-12-18T13:08:11.559Z,14.00
2022-12-18T13:10:42.733Z,14.10
2022-12-18T13:13:11.633Z,14.10
2022-12-18T13:15:44.221Z,14.10
2022-12-18T13:18:21.706Z,14.10
2022-12-18T13:20:55.396Z,14.10
2022-12-18T13:23:35.775Z,14.10
2022-12-18T13:26:35.276Z,14.10
2022-12-18T13:29:05.252Z,14.10
2022-12-18T13:32:01.792Z,14.00
2022-12-18T13:34:32.706Z,14.00
2022-12-18T13:37:34.774Z,13.90
2022-12-18T13:40:03.183Z,13.90
2022-12-18T13:42:58.414Z,13.90
2022-12-18T13:46:01.635Z,13.90
2022-12-18T13:48:34.307Z,13.80
2022-12-18T13:51:05.510Z,13.80
2022-12-18T13:53:39.373Z,13.90
2022-12-18T13:56:08.386Z,13.80
2022-12-18T13:58:36.833Z,13.70
2022-12-18T14:01:06.001Z,13.70
2022-12-18T14:03:35.885Z,13.60
2022-12-18T14:06:08.057Z,13.50
2022-12-18T14:08:41.335Z,13.40
2022-12-18T14:11:22.294Z,13.20
2022-12-18T14:13:51.519Z,13.00
2022-12-18T14:16:20.151Z,12.90
2022-12-18T14:18:55.505Z,13.10
2022-12-18T14:21:30.289Z,13.00
2022-12-18T14:24:15.410Z,12.80
2022-12-18T14:26:45.577Z,12.80
2022-12-18T14:29:28.426Z,12.70
2022-12-18T14:32:17.390Z,12.70
2022-12-18T14:34:48.793Z,12.70
2022-12-18T14:37:20.167Z,12.80
2022-12-18T14:39:56.313Z,12.70
2022-12-18T14:42:28.868Z,12.70
2022-12-18T14:45:43.384Z,12.80
2022-12-18T14:48:23.248Z,12.60
2022-12-18T14:51:02.058Z,12.50
2022-12-18T14:53:41.711Z,12.30
2022-12-18T14:56:18.546Z,12.20
2022-12-18T14:58:49.323Z,12.20
2022-12-18T15:01:23.837Z,12.10
2022-12-18T15:03:53.553Z,12.00
2022-12-18T15:06:30.213Z,11.90
2022-12-18T15:08:59.794Z,11.80
2022-12-18T15:11:31.011Z,11.80
2022-12-18T15:14:01.656Z,11.80
2022-12-18T15:16:30.418Z,11.70
2022-12-18T15:18:58.749Z,11.60
2022-12-18T15:21:31.653Z,11.50
2022-12-18T15:24:00.970Z,11.40
2022-12-18T15:26:38.138Z,11.40
2022-12-18T15:29:09.084Z,11.30
2022-12-18T15:31:39.986Z,11.10
2022-12-18T15:34:21.269Z,11.10
2022-12-18T15:36:53.078Z,11.10
2022-12-18T15:39:21.466Z,11.00
2022-12-18T15:42:07.075Z,10.90
2022-12-18T15:44:35.766Z,10.90
2022-12-18T15:47:04.083Z,10.90
2022-12-18T15:49:32.416Z,10.80
2022-12-18T15:52:04.001Z,10.80
2022-12-18T15:54:49.538Z,10.80
2022-12-18T15:57:27.493Z,10.70
2022-12-18T15:59:59.121Z,10.60
2022-12-18T16:02:28.953Z,10.50
2022-12-18T16:04:57.386Z,10.40
2022-12-18T16:07:30.274Z,10.40
2022-12-18T16:10:00.417Z,10.30
2022-12-18T16:12:30.920Z,10.30
2022-12-18T16:14:59.218Z,10.30
2022-12-18T16:17:27.614Z,10.20
2022-12-18T16:19:56.039Z,10.20
2022-12-18T16:22:27.741Z,10.10
2022-12-18T16:24:57.746Z,10.00
2022-12-18T16:27:26.949Z,10.00
2022-12-18T16:29:55.328Z,10.00
2022-12-18T16:32:24.801Z,9.90
2022-12-18T16:34:53.254Z,9.90
2022-12-18T16:37:21.600Z,9.80
2022-12-18T16:39:51.538Z,9.80
2022-12-18T16:42:21.543Z,9.80
2022-12-18T16:44:51.359Z,9.80
2022-12-18T16:47:20.113Z,9.80
2022-12-18T16:49:51.787Z,9.80
2022-12-18T16:52:20.687Z,9.70
2022-12-18T16:54:50.685Z,9.70
2022-12-18T16:57:21.525Z,9.60
2022-12-18T16:59:53.573Z,9.60
2022-12-18T17:02:24.503Z,9.60
2022-12-18T17:04:55.668Z,9.60
2022-12-18T17:07:24.320Z,9.70
2022-12-18T17:09:54.325Z,9.60
2022-12-18T17:12:23.277Z,9.60
2022-12-18T17:14:51.686Z,9.70
2022-12-18T17:17:23.172Z,9.60
2022-12-18T17:19:52.469Z,9.60
2022-12-18T17:22:21.301Z,9.50
2022-12-18T17:24:49.974Z,9.60
2022-12-18T17:27:19.875Z,9.40
2022-12-18T17:29:48.942Z,9.50
2022-12-18T17:32:17.370Z,9.50
2022-12-18T17:34:46.124Z,9.40
2022-12-18T17:37:17.195Z,9.40
2022-12-18T17:39:45.577Z,9.40
2022-12-18T17:42:15.693Z,9.40
2022-12-18T17:44:46.059Z,9.50
2022-12-18T17:47:15.395Z,9.50
2022-12-18T17:49:43.511Z,9.40
2022-12-18T17:52:12.251Z,9.50
2022-12-18T17:54:42.111Z,9.50
2022-12-18T17:57:10.773Z,9.60
2022-12-18T17:59:39.184Z,9.50
2022-12-18T18:02:10.962Z,9.50
2022-12-18T18:04:39.505Z,9.40
2022-12-18T18:07:07.878Z,9.30
2022-12-18T18:09:36.175Z,9.20
2022-12-18T18:12:21.780Z,9.40
2022-12-18T18:14:50.409Z,9.30
2022-12-18T18:17:20.700Z,9.30
2022-12-18T18:19:49.606Z,9.20
2022-12-18T18:22:18.746Z,9.20
2022-12-18T18:24:47.831Z,9.20
2022-12-18T18:27:16.387Z,9.10
2022-12-18T18:29:45.148Z,9.10
2022-12-18T18:32:13.479Z,9.10
2022-12-18T18:34:43.197Z,9.00
2022-12-18T18:37:11.905Z,9.00
2022-12-18T18:39:40.427Z,9.00
2022-12-18T18:42:08.936Z,8.90
2022-12-18T18:44:37.778Z,8.90
2022-12-18T18:47:09.420Z,8.80
2022-12-18T18:49:38.475Z,8.80
2022-12-18T18:52:08.351Z,8.80
2022-12-18T18:54:36.644Z,8.80
2022-12-18T18:57:20.304Z,8.80
2022-12-18T18:59:49.738Z,8.80
2022-12-18T19:02:18.983Z,8.80
2022-12-18T19:04:47.788Z,8.90
2022-12-18T19:07:29.994Z,8.90
2022-12-18T19:10:03.560Z,8.90
2022-12-18T19:12:51.912Z,8.90
2022-12-18T19:15:20.460Z,9.00
2022-12-18T19:17:49.105Z,8.90
2022-12-18T19:20:18.285Z,8.80
2022-12-18T19:22:54.370Z,8.90
2022-12-18T19:25:29.691Z,9.00
2022-12-18T19:28:21.647Z,9.00
2022-12-18T19:30:55.369Z,8.90
2022-12-18T19:33:44.844Z,8.80
2022-12-18T19:36:16.576Z,8.80
2022-12-18T19:38:46.561Z,8.80
2022-12-18T19:41:15.504Z,8.80
2022-12-18T19:43:44.532Z,8.80
2022-12-18T19:46:15.404Z,8.70
2022-12-18T19:48:45.470Z,8.70
2022-12-18T19:51:16.585Z,8.70
2022-12-18T19:53:47.182Z,8.70
2022-12-18T19:56:17.839Z,8.80
2022-12-18T19:58:46.595Z,8.70
2022-12-18T20:01:16.567Z,8.70
2022-12-18T20:03:51.716Z,8.60
2022-12-18T20:06:27.081Z,8.50
2022-12-18T20:09:00.689Z,8.50
2022-12-18T20:11:29.885Z,8.60
2022-12-18T20:13:58.251Z,8.70
2022-12-18T20:16:26.838Z,8.80
2022-12-18T20:18:55.237Z,8.80
2022-12-18T20:21:25.237Z,8.80
2022-12-18T20:23:54.836Z,8.80
2022-12-18T20:26:25.150Z,8.90
2022-12-18T20:28:53.833Z,9.00
2022-12-18T20:31:22.230Z,9.00
2022-12-18T20:33:52.236Z,9.00
2022-12-18T20:36:24.624Z,9.00
2022-12-18T20:38:59.218Z,8.90
2022-12-18T20:41:37.323Z,9.10
2022-12-18T20:44:10.994Z,9.30
2022-12-18T20:46:53.106Z,9.30
2022-12-18T20:49:21.717Z,9.30
2022-12-18T20:51:52.578Z,9.30
2022-12-18T20:54:21.235Z,9.30
2022-12-18T20:56:51.513Z,9.50
2022-12-18T20:59:20.334Z,9.60
2022-12-18T21:01:49.483Z,9.60
2022-12-18T21:04:18.625Z,9.70
2022-12-18T21:06:51.666Z,9.70
2022-12-18T21:09:22.724Z,9.80
2022-12-18T21:12:11.138Z,9.70
2022-12-18T21:14:43.353Z,9.70
2022-12-18T21:17:12.216Z,9.80
2022-12-18T21:19:41.540Z,9.80
2022-12-18T21:22:11.015Z,9.80
2022-12-18T21:24:39.614Z,9.80
2022-12-18T21:27:09.324Z,9.90
2022-12-18T21:29:41.253Z,10.00
2022-12-18T21:32:10.306Z,9.90
2022-12-18T21:34:43.312Z,9.80
2022-12-18T21:37:14.587Z,9.90
2022-12-18T21:39:42.833Z,10.00
2022-12-18T21:42:32.396Z,10.00
2022-12-18T21:45:06.904Z,9.80
2022-12-18T21:47:36.927Z,9.70
2022-12-18T21:50:06.558Z,9.70
2022-12-18T21:52:35.929Z,9.70
2022-12-18T21:55:09.453Z,9.70
2022-12-18T21:57:44.056Z,9.60
2022-12-18T22:00:18.430Z,9.60
2022-12-18T22:02:49.598Z,9.70
2022-12-18T22:05:36.571Z,9.70
2022-12-18T22:08:05.164Z,9.60
2022-12-18T22:10:33.814Z,9.60
2022-12-18T22:13:03.881Z,9.50
2022-12-18T22:15:32.192Z,9.60
2022-12-18T22:18:00.820Z,9.70
2022-12-18T22:20:29.802Z,9.60
2022-12-18T22:22:58.613Z,9.40
2022-12-18T22:25:28.126Z,9.30
2022-12-18T22:28:13.800Z,9.30
2022-12-18T22:30:43.754Z,9.20
2022-12-18T22:33:12.191Z,9.20
2022-12-18T22:35:40.839Z,9.20
2022-12-18T22:38:09.558Z,9.20
2022-12-18T22:40:37.890Z,9.10
2022-12-18T22:43:06.471Z,9.10
2022-12-18T22:45:37.988Z,9.10
2022-12-18T22:48:08.870Z,9.10
2022-12-18T22:50:37.471Z,8.90
2022-12-18T22:53:07.843Z,8.90
2022-12-18T22:55:36.707Z,8.90
2022-12-18T22:58:05.525Z,8.90
2022-12-18T23:00:33.819Z,8.80
2022-12-18T23:03:02.321Z,8.70
2022-12-18T23:05:32.651Z,8.60
2022-12-18T23:08:01.010Z,8.70
2022-12-18T23:10:29.627Z,8.60
2022-12-18T23:12:58.036Z,8.50
2022-12-18T23:15:29.803Z,8.50
2022-12-18T23:17:59.770Z,8.50
2022-12-18T23:20:28.989Z,8.60
2022-12-18T23:22:58.655Z,8.50
2022-12-18T23:25:26.920Z,8.40
2022-12-18T23:27:55.236Z,8.50
2022-12-18T23:30:23.541Z,8.60
2022-12-18T23:32:51.852Z,8.50
2022-12-18T23:35:20.214Z,8.50
2022-12-18T23:37:59.047Z,8.50
2022-12-18T23:40:30.538Z,8.50
2022-12-18T23:43:00.772Z,8.50
2022-12-18T23:45:29.210Z,8.40
2022-12-18T23:47:57.526Z,8.40
2022-12-18T23:50:29.307Z,8.40
2022-12-18T23:53:05.186Z,8.60
2022-12-18T23:55:40.456Z,8.60
2022-12-18T23:58:16.062Z,8.60
